首页
METAR-TAF:

METAR-TAF

机场 :

伯恩茅斯, 英格兰

纬度: 50-47N, 经度: 001-50W, 海拔: 11米

当前天气观测

该预报发布于22分钟前的08:20 UTC
风速4节,风向东北,在北转东北之间变化
温度 14°C
湿度 82%
气压 1015 hPa
能见度10公里或以上
少量云层高于1000英尺
多云层高于1400英尺

METAR: EGHH 190820Z 04004KT 020V090 9999 FEW010 BKN014 14/11 Q1015

时间: 09:42 (08:42 UTC)

预报

该预报发布于42分钟前的08:00 UTC
预报有效从19日的 09点(UTC)到 19日的 18点(UTC)
风速5节,风向
能见度10公里或以上
散云层高于1500英尺
几率 30% :
短暂存在
从 19日的 09点(UTC)到 19日的 13点(UTC)
多云层高于1400英尺
几率 30% :
短暂存在
从 19日的 14点(UTC)到 19日的 18点(UTC)
能見度: 6000
多云层高于1000英尺
雨, 小雨, 毛毛雨

TAF: EGHH 190800Z 1909/1918 08005KT 9999 SCT015 PROB30 TEMPO 1909/1913 BKN014 PROB30 TEMPO 1914/1918 6000 RA -RADZ BKN010

超过4000个机场的气象观测和天气预报(METAR&TAF报告)。

可查询的气象台以黄色和红色小点在地图上表示。

将鼠标移到小点上方,可查看气象台名称。

然后点击查看天气观测和预报。

如需切换地图:点击带黑十字的绿色按钮放大地图;点击带横线的绿色按钮缩小地图;或者点击绿色箭头查看邻近地区的地图。


METAR-TAF: